createdAt,value
2019-03-30T00:00:43.861Z,74.95
2019-03-30T00:01:43.857Z,75.67
2019-03-30T00:02:43.850Z,75.67
2019-03-30T00:03:43.849Z,75.77
2019-03-30T00:04:43.828Z,75.77
2019-03-30T00:05:43.812Z,74.67
2019-03-30T00:06:43.810Z,75.81
2019-03-30T00:07:43.791Z,74.98
2019-03-30T00:08:43.821Z,75.18
2019-03-30T00:09:43.769Z,75.81
2019-03-30T00:10:43.762Z,76.21
2019-03-30T00:11:43.742Z,76.53
2019-03-30T00:12:43.744Z,76.73
2019-03-30T00:13:43.750Z,75.70
2019-03-30T00:14:43.717Z,76.53
2019-03-30T00:15:43.724Z,76.32
2019-03-30T00:16:43.696Z,76.84
2019-03-30T00:17:43.686Z,75.70
2019-03-30T00:18:43.707Z,76.63
2019-03-30T00:19:43.690Z,76.01
2019-03-30T00:20:43.646Z,76.63
2019-03-30T00:21:43.639Z,76.63
2019-03-30T00:22:43.642Z,76.21
2019-03-30T00:23:43.626Z,76.77
2019-03-30T00:24:43.595Z,76.77
2019-03-30T00:25:43.607Z,77.08
2019-03-30T00:26:43.572Z,76.87
2019-03-30T00:27:43.569Z,77.32
2019-03-30T00:28:43.557Z,76.98
2019-03-30T00:29:43.567Z,77.18
2019-03-30T00:30:43.534Z,76.39
2019-03-30T00:31:43.519Z,76.35
2019-03-30T00:32:43.526Z,77.70
2019-03-30T00:33:43.506Z,76.39
2019-03-30T00:34:43.529Z,76.67
2019-03-30T00:35:43.480Z,78.01
2019-03-30T00:36:43.492Z,77.73
2019-03-30T00:37:43.459Z,76.39
2019-03-30T00:38:43.445Z,76.50
2019-03-30T00:39:43.453Z,76.08
2019-03-30T00:40:43.436Z,77.32
2019-03-30T00:41:43.425Z,77.11
2019-03-30T00:42:43.432Z,77.11
2019-03-30T00:43:43.386Z,77.01
2019-03-30T00:44:43.416Z,76.90
2019-03-30T00:45:43.371Z,76.81
2019-03-30T00:46:43.362Z,76.50
2019-03-30T00:47:43.366Z,77.32
2019-03-30T00:48:43.336Z,77.53
2019-03-30T00:49:49.257Z,76.39
2019-03-30T00:50:44.330Z,77.73
2019-03-30T00:51:43.321Z,77.01
2019-03-30T00:52:43.291Z,76.90
2019-03-30T00:53:43.283Z,76.60
2019-03-30T00:54:43.288Z,76.70
2019-03-30T00:55:43.258Z,77.73
2019-03-30T00:56:43.244Z,76.50
2019-03-30T00:57:43.251Z,77.01
2019-03-30T00:58:43.226Z,76.81
2019-03-30T00:59:43.264Z,76.60
2019-03-30T01:00:43.204Z,75.87
2019-03-30T01:01:43.201Z,77.32
2019-03-30T01:02:43.262Z,77.36
2019-03-30T01:03:43.208Z,77.46
2019-03-30T01:04:43.181Z,77.25
2019-03-30T01:05:43.178Z,77.25
2019-03-30T01:06:43.135Z,77.22
2019-03-30T01:07:43.147Z,77.56
2019-03-30T01:08:43.137Z,77.36
2019-03-30T01:09:43.127Z,77.25
2019-03-30T01:10:43.118Z,77.98
2019-03-30T01:11:43.090Z,77.98
2019-03-30T01:12:43.084Z,77.98
2019-03-30T01:13:43.067Z,76.73
2019-03-30T01:14:43.057Z,77.04
2019-03-30T01:15:43.059Z,77.08
2019-03-30T01:16:43.040Z,77.29
2019-03-30T01:17:43.039Z,78.01
2019-03-30T01:18:43.010Z,77.60
2019-03-30T01:19:43.006Z,77.70
2019-03-30T01:20:43.007Z,78.53
2019-03-30T01:21:42.989Z,78.22
2019-03-30T01:22:42.971Z,78.22
2019-03-30T01:23:42.967Z,78.46
2019-03-30T01:24:42.940Z,78.11
2019-03-30T01:25:42.937Z,78.32
2019-03-30T01:26:42.939Z,77.91
2019-03-30T01:27:42.919Z,78.25
2019-03-30T01:28:42.900Z,78.05
2019-03-30T01:29:42.907Z,78.36
2019-03-30T01:30:42.880Z,78.25
2019-03-30T01:31:42.886Z,78.25
2019-03-30T01:32:42.867Z,78.98
2019-03-30T01:33:42.841Z,78.67
2019-03-30T01:34:42.833Z,78.56
2019-03-30T01:35:42.829Z,78.15
2019-03-30T01:36:42.812Z,78.05
2019-03-30T01:37:42.815Z,78.46
2019-03-30T01:38:42.789Z,78.42
2019-03-30T01:39:42.776Z,78.32
2019-03-30T01:40:42.772Z,78.36
2019-03-30T01:41:42.770Z,78.67
2019-03-30T01:42:42.770Z,78.22
2019-03-30T01:43:42.731Z,78.46
2019-03-30T01:44:42.722Z,78.46
2019-03-30T01:45:42.711Z,78.56
2019-03-30T01:46:42.719Z,78.36
2019-03-30T01:47:42.690Z,78.36
2019-03-30T01:48:42.677Z,78.56
2019-03-30T01:49:42.668Z,79.19
2019-03-30T01:50:42.662Z,79.29
2019-03-30T01:51:42.683Z,79.08
2019-03-30T01:52:42.661Z,79.08
2019-03-30T01:53:42.632Z,78.88
2019-03-30T01:54:42.640Z,79.39
2019-03-30T01:55:42.598Z,78.98
2019-03-30T01:56:42.587Z,79.49
2019-03-30T01:57:42.622Z,78.88
2019-03-30T01:58:42.570Z,79.29
2019-03-30T01:59:42.555Z,78.60
2019-03-30T02:00:42.555Z,78.91
2019-03-30T02:01:42.533Z,79.22
2019-03-30T02:02:42.566Z,78.88
2019-03-30T02:03:42.514Z,79.53
2019-03-30T02:04:42.498Z,79.39
2019-03-30T02:05:42.512Z,78.81
2019-03-30T02:06:42.489Z,79.70
2019-03-30T02:07:42.484Z,78.91
2019-03-30T02:08:42.470Z,79.22
2019-03-30T02:09:42.444Z,78.81
2019-03-30T02:10:42.433Z,78.70
2019-03-30T02:11:42.423Z,79.63
2019-03-30T02:12:42.434Z,79.43
2019-03-30T02:13:42.399Z,79.43
2019-03-30T02:14:42.387Z,79.84
2019-03-30T02:15:42.397Z,80.08
2019-03-30T02:16:42.366Z,80.19
2019-03-30T02:17:42.378Z,80.05
2019-03-30T02:18:42.348Z,80.08
2019-03-30T02:19:42.332Z,79.88
2019-03-30T02:20:42.324Z,80.40
2019-03-30T02:21:42.311Z,80.08
2019-03-30T02:22:42.302Z,79.98
2019-03-30T02:23:42.332Z,80.81
2019-03-30T02:24:42.273Z,80.71
2019-03-30T02:25:42.266Z,80.50
2019-03-30T02:26:42.252Z,79.88
2019-03-30T02:27:42.259Z,80.40
2019-03-30T02:28:42.254Z,81.02
2019-03-30T02:29:42.223Z,80.29
2019-03-30T02:30:42.214Z,80.50
2019-03-30T02:31:42.201Z,80.50
2019-03-30T02:32:42.185Z,80.60
2019-03-30T02:33:42.191Z,80.40
2019-03-30T02:34:42.163Z,80.64
2019-03-30T02:35:42.154Z,80.71
2019-03-30T02:36:42.145Z,80.50
2019-03-30T02:37:42.133Z,80.64
2019-03-30T02:38:42.134Z,80.40
2019-03-30T02:39:42.117Z,81.37
2019-03-30T02:40:42.106Z,80.71
2019-03-30T02:41:42.087Z,80.81
2019-03-30T02:42:42.081Z,80.85
2019-03-30T02:43:42.195Z,81.33
2019-03-30T02:44:42.054Z,80.64
2019-03-30T02:45:42.047Z,80.50
2019-03-30T02:46:42.032Z,80.95
2019-03-30T02:47:42.041Z,80.74
2019-03-30T02:48:42.009Z,80.64
2019-03-30T02:49:42.079Z,80.95
2019-03-30T02:50:49.763Z,81.37
2019-03-30T02:51:42.979Z,81.57
2019-03-30T02:52:41.971Z,81.47
2019-03-30T02:53:41.959Z,81.71
2019-03-30T02:54:41.989Z,81.61
2019-03-30T02:55:41.946Z,81.71
2019-03-30T02:56:41.928Z,82.23
2019-03-30T02:57:41.909Z,82.03
2019-03-30T02:58:41.915Z,82.44
2019-03-30T02:59:41.907Z,81.92
2019-03-30T03:00:41.878Z,81.51
2019-03-30T03:01:41.873Z,81.71
2019-03-30T03:02:41.876Z,81.71
2019-03-30T03:03:41.843Z,82.03
2019-03-30T03:04:41.853Z,81.82
2019-03-30T03:05:41.820Z,81.71
2019-03-30T03:06:41.823Z,81.61
2019-03-30T03:07:41.813Z,81.30
2019-03-30T03:08:41.804Z,81.78
2019-03-30T03:09:41.795Z,81.88
2019-03-30T03:10:41.771Z,81.71
2019-03-30T03:11:41.764Z,81.40
2019-03-30T03:12:41.755Z,81.92
2019-03-30T03:13:41.732Z,82.03
2019-03-30T03:14:41.752Z,81.71
2019-03-30T03:15:41.747Z,80.88
2019-03-30T03:16:41.709Z,81.09
2019-03-30T03:17:41.718Z,81.30
2019-03-30T03:18:41.681Z,81.30
2019-03-30T03:19:41.690Z,81.30
2019-03-30T03:20:41.676Z,81.30
2019-03-30T03:21:41.664Z,81.40
2019-03-30T03:22:41.634Z,81.96
2019-03-30T03:23:41.628Z,81.61
2019-03-30T03:24:41.666Z,81.85
2019-03-30T03:25:41.610Z,81.85
2019-03-30T03:26:41.597Z,81.85
2019-03-30T03:27:41.585Z,81.96
2019-03-30T03:28:41.577Z,82.27
2019-03-30T03:29:43.968Z,82.17
2019-03-30T03:30:41.578Z,82.58
2019-03-30T03:31:41.541Z,82.41
2019-03-30T03:32:41.525Z,82.31
2019-03-30T03:33:41.530Z,82.82
2019-03-30T03:34:41.521Z,82.41
2019-03-30T03:35:41.531Z,82.72
2019-03-30T03:36:41.505Z,82.82
2019-03-30T03:37:45.153Z,82.72
2019-03-30T03:38:41.462Z,83.14
2019-03-30T03:39:41.460Z,82.62
2019-03-30T03:40:41.470Z,82.93
2019-03-30T03:41:41.420Z,82.62
2019-03-30T03:42:41.431Z,82.93
2019-03-30T03:43:41.419Z,82.62
2019-03-30T03:44:41.393Z,83.03
2019-03-30T03:45:41.431Z,82.97
2019-03-30T03:46:41.374Z,82.93
2019-03-30T03:47:41.371Z,83.45
2019-03-30T03:48:41.350Z,82.82
2019-03-30T03:49:41.336Z,82.86
2019-03-30T03:50:41.341Z,82.82
2019-03-30T03:51:41.316Z,82.76
2019-03-30T03:52:41.320Z,82.41
2019-03-30T03:53:41.298Z,82.82
2019-03-30T03:54:41.279Z,82.86
2019-03-30T03:55:41.353Z,83.03
2019-03-30T03:56:41.274Z,82.41
2019-03-30T03:57:41.254Z,82.55
2019-03-30T03:58:41.243Z,82.34
2019-03-30T03:59:41.226Z,82.45
2019-03-30T04:00:41.254Z,82.76
2019-03-30T04:01:41.215Z,82.45
2019-03-30T04:02:41.303Z,82.45
2019-03-30T04:03:41.191Z,82.86
2019-03-30T04:04:41.184Z,82.76
2019-03-30T04:05:41.167Z,82.65
2019-03-30T04:06:41.165Z,83.07
2019-03-30T04:07:41.148Z,82.76
2019-03-30T04:08:41.142Z,82.45
2019-03-30T04:09:41.117Z,83.17
2019-03-30T04:10:41.103Z,82.86
2019-03-30T04:11:41.116Z,82.86
2019-03-30T04:12:41.081Z,82.45
2019-03-30T04:13:41.070Z,83.07
2019-03-30T04:14:41.063Z,82.76
2019-03-30T04:15:41.047Z,82.55
2019-03-30T04:16:41.057Z,82.65
2019-03-30T04:17:41.041Z,82.97
2019-03-30T04:18:41.035Z,82.86
2019-03-30T04:19:41.001Z,82.45
2019-03-30T04:20:40.987Z,82.86
2019-03-30T04:21:44.229Z,82.80
2019-03-30T04:22:40.975Z,82.80
2019-03-30T04:23:40.988Z,82.80
2019-03-30T04:24:40.943Z,82.80
2019-03-30T04:25:40.969Z,83.53
2019-03-30T04:26:40.945Z,83.53
2019-03-30T04:27:40.927Z,83.63
2019-03-30T04:28:40.922Z,83.42
2019-03-30T04:29:40.900Z,82.90
2019-03-30T04:30:40.902Z,83.63
2019-03-30T04:31:40.931Z,82.90
2019-03-30T04:32:40.863Z,82.90
2019-03-30T04:33:40.864Z,83.36
2019-03-30T04:34:40.846Z,82.80
2019-03-30T04:35:40.832Z,82.84
2019-03-30T04:36:40.849Z,83.25
2019-03-30T04:37:40.836Z,83.32
2019-03-30T04:38:40.804Z,83.67
2019-03-30T04:39:40.852Z,83.46
2019-03-30T04:40:40.779Z,83.56
2019-03-30T04:41:40.784Z,83.22
2019-03-30T04:42:40.787Z,82.84
2019-03-30T04:43:40.759Z,83.36
2019-03-30T04:44:40.744Z,83.94
2019-03-30T04:45:40.730Z,83.36
2019-03-30T04:46:40.712Z,83.67
2019-03-30T04:47:40.728Z,84.36
2019-03-30T04:48:40.690Z,83.25
2019-03-30T04:49:40.697Z,83.32
2019-03-30T04:50:40.672Z,83.63
2019-03-30T04:51:40.661Z,82.90
2019-03-30T04:52:40.770Z,83.25
2019-03-30T04:53:40.638Z,82.84
2019-03-30T04:54:40.636Z,82.73
2019-03-30T04:55:40.623Z,82.53
2019-03-30T04:56:40.621Z,82.84
2019-03-30T04:57:40.637Z,82.80
2019-03-30T04:58:40.581Z,83.04
2019-03-30T04:59:40.587Z,83.67
2019-03-30T05:00:40.564Z,83.77
2019-03-30T05:01:40.547Z,83.63
2019-03-30T05:02:40.563Z,83.36
2019-03-30T05:03:40.533Z,83.46
2019-03-30T05:04:40.524Z,82.94
2019-03-30T05:05:43.016Z,83.67
2019-03-30T05:06:40.502Z,83.15
2019-03-30T05:07:40.525Z,83.25
2019-03-30T05:08:40.476Z,82.94
2019-03-30T05:09:40.473Z,83.04
2019-03-30T05:10:40.457Z,82.84
2019-03-30T05:11:40.444Z,83.77
2019-03-30T05:12:40.432Z,83.56
2019-03-30T05:13:40.441Z,84.08
2019-03-30T05:14:40.414Z,83.56
2019-03-30T05:15:40.401Z,83.46
2019-03-30T05:16:40.389Z,83.46
2019-03-30T05:17:47.587Z,83.36
2019-03-30T05:18:41.388Z,82.73
2019-03-30T05:19:40.362Z,83.46
2019-03-30T05:20:40.346Z,83.98
2019-03-30T05:21:40.332Z,83.25
2019-03-30T05:22:40.327Z,83.50
2019-03-30T05:23:40.331Z,82.87
2019-03-30T05:24:40.305Z,83.77
2019-03-30T05:25:40.294Z,83.98
2019-03-30T05:26:40.280Z,84.39
2019-03-30T05:27:40.271Z,84.60
2019-03-30T05:28:40.280Z,84.60
2019-03-30T05:29:40.245Z,84.60
2019-03-30T05:30:40.238Z,83.67
2019-03-30T05:31:40.233Z,83.87
2019-03-30T05:32:41.895Z,83.98
2019-03-30T05:33:40.228Z,84.70
2019-03-30T05:34:40.220Z,83.98
2019-03-30T05:35:40.203Z,83.87
2019-03-30T05:36:40.170Z,84.19
2019-03-30T05:37:40.163Z,82.94
2019-03-30T05:38:40.173Z,83.04
2019-03-30T05:39:40.141Z,82.73
2019-03-30T05:40:40.136Z,83.77
2019-03-30T05:41:40.116Z,84.19
2019-03-30T05:42:40.110Z,84.60
2019-03-30T05:43:40.120Z,83.67
2019-03-30T05:44:40.090Z,84.29
2019-03-30T05:45:40.106Z,83.84
2019-03-30T05:46:40.072Z,84.56
2019-03-30T05:47:40.056Z,84.25
2019-03-30T05:48:40.086Z,83.53
2019-03-30T05:49:40.039Z,83.22
2019-03-30T05:50:40.023Z,83.22
2019-03-30T05:51:40.052Z,83.63
2019-03-30T05:52:40.010Z,83.28
2019-03-30T05:53:39.988Z,83.73
2019-03-30T05:54:40.016Z,83.28
2019-03-30T05:55:39.977Z,83.28
2019-03-30T05:56:39.957Z,82.65
2019-03-30T05:57:39.951Z,82.97
2019-03-30T05:58:39.961Z,82.86
2019-03-30T05:59:39.954Z,82.62
2019-03-30T06:00:39.954Z,82.72
2019-03-30T06:01:39.918Z,82.72
2019-03-30T06:02:39.889Z,83.03
2019-03-30T06:03:39.903Z,82.68
2019-03-30T06:04:39.942Z,82.58
2019-03-30T06:05:39.864Z,82.27
2019-03-30T06:06:39.852Z,82.37
2019-03-30T06:07:39.854Z,82.79
2019-03-30T06:08:39.821Z,82.68
2019-03-30T06:09:39.842Z,82.65
2019-03-30T06:10:39.801Z,82.23
2019-03-30T06:11:39.787Z,82.44
2019-03-30T06:12:39.790Z,82.34
2019-03-30T06:13:39.767Z,82.34
2019-03-30T06:14:39.806Z,82.92
2019-03-30T06:15:39.758Z,82.50
2019-03-30T06:16:39.734Z,82.36
2019-03-30T06:17:39.740Z,81.88
2019-03-30T06:18:39.725Z,82.15
2019-03-30T06:19:39.814Z,82.46
2019-03-30T06:20:39.733Z,82.57
2019-03-30T06:21:39.693Z,82.01
2019-03-30T06:22:40.787Z,82.12
2019-03-30T06:23:39.661Z,82.12
2019-03-30T06:24:39.642Z,82.01
2019-03-30T06:25:39.675Z,82.32
2019-03-30T06:26:39.622Z,82.60
2019-03-30T06:27:39.631Z,82.08
2019-03-30T06:28:39.623Z,82.08
2019-03-30T06:29:39.591Z,81.94
2019-03-30T06:30:39.596Z,81.42
2019-03-30T06:31:39.622Z,81.32
2019-03-30T06:32:39.556Z,81.49
2019-03-30T06:33:39.604Z,81.28
2019-03-30T06:34:39.541Z,80.56
2019-03-30T06:35:39.550Z,81.04
2019-03-30T06:36:39.534Z,81.66
2019-03-30T06:37:39.501Z,81.31
2019-03-30T06:38:39.511Z,80.42
2019-03-30T06:39:39.481Z,81.21
2019-03-30T06:40:39.531Z,79.97
2019-03-30T06:41:39.465Z,79.52
2019-03-30T06:42:39.459Z,80.24
2019-03-30T06:43:39.436Z,80.20
2019-03-30T06:44:39.429Z,79.90
2019-03-30T06:45:39.455Z,79.55
2019-03-30T06:46:39.774Z,79.44
2019-03-30T06:47:39.418Z,78.41
2019-03-30T06:48:39.402Z,78.38
2019-03-30T06:49:39.401Z,78.58
2019-03-30T06:50:39.363Z,78.03
2019-03-30T06:51:39.447Z,78.14
2019-03-30T06:52:42.691Z,77.89
2019-03-30T06:53:40.356Z,76.56
2019-03-30T06:54:39.320Z,76.04
2019-03-30T06:55:39.328Z,76.66
2019-03-30T06:56:39.324Z,75.49
2019-03-30T06:57:39.282Z,74.87
2019-03-30T06:58:39.276Z,76.18
2019-03-30T06:59:39.274Z,74.95
2019-03-30T07:00:39.285Z,74.02
2019-03-30T07:01:39.254Z,72.85
2019-03-30T07:02:39.235Z,73.06
2019-03-30T07:03:39.232Z,73.27
2019-03-30T07:04:39.207Z,73.33
2019-03-30T07:05:39.199Z,72.51
2019-03-30T07:06:39.216Z,73.02
2019-03-30T07:07:39.184Z,72.17
2019-03-30T07:08:39.188Z,70.73
2019-03-30T07:09:39.149Z,71.01
2019-03-30T07:10:39.143Z,71.62
2019-03-30T07:11:39.203Z,71.21
2019-03-30T07:12:39.116Z,70.56
2019-03-30T07:13:39.112Z,70.77
2019-03-30T07:14:39.096Z,70.36
2019-03-30T07:15:39.081Z,69.95
2019-03-30T07:16:39.093Z,70.32
2019-03-30T07:17:39.092Z,69.13
2019-03-30T07:18:39.057Z,69.71
2019-03-30T07:19:39.041Z,68.17
2019-03-30T07:20:39.031Z,67.76
2019-03-30T07:21:39.050Z,70.29
2019-03-30T07:22:39.030Z,69.37
2019-03-30T07:23:39.003Z,67.90
2019-03-30T07:24:39.039Z,67.70
2019-03-30T07:25:38.980Z,66.13
2019-03-30T07:26:38.963Z,65.11
2019-03-30T07:27:38.969Z,64.36
2019-03-30T07:28:38.949Z,64.98
2019-03-30T07:29:38.938Z,65.66
2019-03-30T07:30:38.927Z,65.15
2019-03-30T07:31:38.933Z,65.94
2019-03-30T07:32:38.972Z,64.30
2019-03-30T07:33:38.881Z,63.69
2019-03-30T07:34:41.561Z,64.40
2019-03-30T07:35:38.869Z,64.71
2019-03-30T07:36:38.857Z,64.40
2019-03-30T07:37:38.842Z,63.18
2019-03-30T07:38:38.874Z,64.68
2019-03-30T07:39:38.817Z,64.68
2019-03-30T07:40:38.812Z,63.43
2019-03-30T07:41:38.795Z,63.43
2019-03-30T07:42:38.892Z,63.43
2019-03-30T07:43:38.796Z,63.40
2019-03-30T07:44:38.767Z,62.04
2019-03-30T07:45:38.775Z,60.82
2019-03-30T07:46:38.746Z,60.71
2019-03-30T07:47:38.746Z,59.36
2019-03-30T07:48:38.733Z,59.56
2019-03-30T07:49:38.713Z,59.97
2019-03-30T07:50:38.705Z,58.95
2019-03-30T07:51:38.700Z,59.33
2019-03-30T07:52:38.676Z,59.97
2019-03-30T07:53:44.784Z,59.64
2019-03-30T07:54:39.654Z,59.87
2019-03-30T07:55:38.645Z,59.12
2019-03-30T07:56:38.642Z,59.84
2019-03-30T07:57:38.642Z,59.61
2019-03-30T07:58:38.629Z,59.12
2019-03-30T07:59:38.603Z,59.41
2019-03-30T08:00:38.601Z,60.22
2019-03-30T08:01:38.581Z,60.32
2019-03-30T08:02:38.580Z,59.17
2019-03-30T08:03:38.574Z,58.44
2019-03-30T08:04:38.543Z,58.74
2019-03-30T08:05:38.535Z,59.05
2019-03-30T08:06:38.521Z,57.69
2019-03-30T08:07:38.507Z,58.40
2019-03-30T08:08:38.533Z,58.10
2019-03-30T08:09:38.482Z,59.22
2019-03-30T08:10:38.490Z,59.53
2019-03-30T08:11:38.459Z,58.07
2019-03-30T08:12:38.459Z,56.34
2019-03-30T08:13:38.437Z,56.95
2019-03-30T08:14:38.461Z,57.26
2019-03-30T08:15:38.422Z,56.04
2019-03-30T08:16:38.402Z,55.10
2019-03-30T08:17:38.395Z,54.90
2019-03-30T08:18:38.382Z,55.38
2019-03-30T08:19:38.385Z,56.90
2019-03-30T08:20:38.359Z,56.39
2019-03-30T08:21:38.353Z,55.99
2019-03-30T08:22:38.357Z,56.39
2019-03-30T08:23:40.725Z,56.26
2019-03-30T08:24:38.346Z,55.15
2019-03-30T08:25:38.305Z,56.39
2019-03-30T08:26:38.297Z,55.86
2019-03-30T08:27:38.295Z,55.43
2019-03-30T08:28:38.284Z,55.93
2019-03-30T08:29:38.306Z,55.93
2019-03-30T08:30:38.251Z,55.53
2019-03-30T08:31:38.254Z,55.02
2019-03-30T08:32:38.232Z,54.59
2019-03-30T08:33:38.227Z,55.30
2019-03-30T08:34:38.244Z,52.66
2019-03-30T08:35:38.241Z,55.88
2019-03-30T08:36:38.195Z,52.31
2019-03-30T08:37:38.174Z,52.61
2019-03-30T08:38:38.193Z,52.69
2019-03-30T08:39:38.160Z,51.17
2019-03-30T08:40:38.475Z,53.80
2019-03-30T08:41:38.134Z,51.65
2019-03-30T08:42:38.136Z,49.83
2019-03-30T08:43:38.112Z,48.31
2019-03-30T08:44:38.100Z,49.60
2019-03-30T08:45:38.116Z,49.80
2019-03-30T08:46:38.087Z,47.58
2019-03-30T08:47:38.077Z,48.28
2019-03-30T08:48:38.099Z,48.46
2019-03-30T08:49:38.062Z,46.14
2019-03-30T08:50:38.070Z,48.08
2019-03-30T08:51:38.021Z,46.36
2019-03-30T08:52:38.016Z,46.77
2019-03-30T08:53:38.012Z,48.08
2019-03-30T08:54:38.003Z,46.87
2019-03-30T08:55:38.007Z,48.26
2019-03-30T08:56:37.971Z,47.75
2019-03-30T08:57:37.969Z,46.44
2019-03-30T08:58:37.945Z,46.72
2019-03-30T08:59:37.932Z,48.14
2019-03-30T09:00:37.938Z,48.14
2019-03-30T09:01:37.937Z,50.37
2019-03-30T09:02:37.966Z,46.72
2019-03-30T09:03:37.887Z,48.62
2019-03-30T09:04:37.872Z,47.71
2019-03-30T09:05:37.906Z,48.42
2019-03-30T09:06:37.854Z,47.69
2019-03-30T09:07:37.884Z,46.88
2019-03-30T09:08:37.841Z,46.17
2019-03-30T09:09:37.837Z,45.06
2019-03-30T09:10:37.824Z,44.46
2019-03-30T09:11:37.812Z,45.97
2019-03-30T09:12:37.786Z,45.06
2019-03-30T09:13:37.802Z,45.26
2019-03-30T09:14:37.767Z,45.87
2019-03-30T09:15:37.836Z,46.30
2019-03-30T09:16:37.758Z,46.28
2019-03-30T09:17:37.762Z,46.17
2019-03-30T09:18:37.738Z,45.06
2019-03-30T09:19:37.719Z,46.28
2019-03-30T09:20:37.730Z,46.05
2019-03-30T09:21:37.692Z,46.48
2019-03-30T09:22:37.678Z,46.66
2019-03-30T09:23:37.666Z,46.36
2019-03-30T09:24:37.653Z,44.54
2019-03-30T09:25:37.680Z,45.95
2019-03-30T09:26:37.646Z,45.32
2019-03-30T09:27:37.623Z,45.62
2019-03-30T09:28:37.623Z,45.83
2019-03-30T09:29:37.626Z,45.90
2019-03-30T09:30:37.587Z,44.09
2019-03-30T09:31:37.598Z,43.77
2019-03-30T09:32:37.586Z,45.07
2019-03-30T09:33:37.556Z,43.97
2019-03-30T09:34:37.547Z,45.18
2019-03-30T09:35:37.531Z,42.25
2019-03-30T09:36:37.690Z,44.17
2019-03-30T09:37:37.509Z,44.37
2019-03-30T09:38:37.505Z,45.58
2019-03-30T09:39:37.487Z,45.06
2019-03-30T09:40:37.476Z,43.46
2019-03-30T09:41:37.484Z,44.95
2019-03-30T09:42:37.457Z,45.98
2019-03-30T09:43:37.836Z,45.86
2019-03-30T09:44:37.436Z,45.97
2019-03-30T09:45:37.423Z,43.74
2019-03-30T09:46:37.425Z,43.44
2019-03-30T09:47:37.402Z,44.95
2019-03-30T09:48:37.387Z,43.24
2019-03-30T09:49:37.380Z,42.52
2019-03-30T09:50:37.370Z,41.91
2019-03-30T09:51:37.372Z,41.61
2019-03-30T09:52:37.371Z,42.10
2019-03-30T09:53:37.349Z,42.50
2019-03-30T09:54:37.349Z,42.30
2019-03-30T09:55:37.315Z,43.51
2019-03-30T09:56:37.304Z,44.19
2019-03-30T09:57:37.320Z,40.86
2019-03-30T09:58:37.285Z,41.69
2019-03-30T09:59:37.272Z,40.77
2019-03-30T10:00:37.275Z,41.67
2019-03-30T10:01:37.256Z,41.27
2019-03-30T10:02:37.269Z,41.29
2019-03-30T10:03:37.239Z,44.69
2019-03-30T10:04:37.230Z,45.87
2019-03-30T10:05:37.201Z,41.15
2019-03-30T10:06:37.194Z,39.64
2019-03-30T10:07:37.207Z,40.46
2019-03-30T10:08:37.183Z,42.66
2019-03-30T10:09:37.220Z,40.75
2019-03-30T10:10:37.150Z,41.65
2019-03-30T10:11:37.139Z,42.55
2019-03-30T10:12:37.160Z,42.96
2019-03-30T10:13:37.132Z,41.05
2019-03-30T10:14:37.102Z,42.35
2019-03-30T10:15:37.096Z,40.42
2019-03-30T10:16:37.083Z,39.52
2019-03-30T10:17:37.069Z,41.93
2019-03-30T10:18:37.081Z,41.23
2019-03-30T10:19:37.067Z,40.53
2019-03-30T10:20:37.040Z,41.13
2019-03-30T10:21:37.040Z,39.42
2019-03-30T10:22:37.048Z,39.20
2019-03-30T10:23:37.009Z,42.03
2019-03-30T10:24:38.290Z,42.52
2019-03-30T10:25:36.995Z,41.11
2019-03-30T10:26:36.979Z,38.40
2019-03-30T10:27:36.988Z,38.90
2019-03-30T10:28:36.966Z,39.10
2019-03-30T10:29:36.942Z,39.50
2019-03-30T10:30:36.935Z,39.30
2019-03-30T10:31:36.922Z,39.00
2019-03-30T10:32:36.904Z,39.98
2019-03-30T10:33:36.920Z,40.08
2019-03-30T10:34:39.489Z,38.40
2019-03-30T10:35:36.874Z,37.79
2019-03-30T10:36:36.864Z,40.11
2019-03-30T10:37:36.854Z,42.11
2019-03-30T10:38:36.862Z,38.38
2019-03-30T10:39:36.836Z,39.48
2019-03-30T10:40:36.828Z,38.78
2019-03-30T10:41:36.813Z,39.28
2019-03-30T10:42:36.798Z,40.47
2019-03-30T10:43:36.803Z,37.26
2019-03-30T10:44:36.779Z,38.66
2019-03-30T10:45:36.769Z,36.35
2019-03-30T10:46:36.754Z,37.15
2019-03-30T10:47:36.746Z,39.66
2019-03-30T10:48:36.753Z,38.46
2019-03-30T10:49:36.743Z,37.05
2019-03-30T10:50:36.715Z,38.56
2019-03-30T10:51:36.699Z,39.76
2019-03-30T10:52:36.698Z,41.25
2019-03-30T10:53:36.701Z,40.25
2019-03-30T10:54:36.672Z,38.32
2019-03-30T10:55:36.664Z,38.53
2019-03-30T10:56:36.647Z,36.23
2019-03-30T10:57:36.638Z,39.25
2019-03-30T10:58:36.643Z,38.53
2019-03-30T10:59:36.614Z,39.51
2019-03-30T11:00:36.609Z,37.20
2019-03-30T11:01:36.589Z,36.60
2019-03-30T11:02:36.611Z,36.60
2019-03-30T11:03:36.568Z,35.19
2019-03-30T11:04:37.749Z,36.50
2019-03-30T11:05:36.555Z,37.10
2019-03-30T11:06:36.598Z,37.30
2019-03-30T11:07:36.544Z,35.69
2019-03-30T11:08:36.523Z,38.81
2019-03-30T11:09:36.536Z,38.68
2019-03-30T11:10:36.501Z,37.48
2019-03-30T11:11:36.478Z,36.88
2019-03-30T11:12:36.482Z,35.66
2019-03-30T11:13:36.468Z,38.37
2019-03-30T11:14:36.462Z,36.15
2019-03-30T11:15:36.441Z,38.95
2019-03-30T11:16:36.420Z,37.53
2019-03-30T11:17:36.415Z,35.23
2019-03-30T11:18:36.404Z,33.84
2019-03-30T11:19:36.413Z,33.64
2019-03-30T11:20:36.388Z,34.06
2019-03-30T11:21:36.385Z,37.16
2019-03-30T11:22:36.408Z,36.26
2019-03-30T11:23:36.352Z,37.16
2019-03-30T11:24:36.363Z,38.57
2019-03-30T11:25:36.328Z,36.15
2019-03-30T11:26:36.322Z,36.25
2019-03-30T11:27:36.326Z,35.44
2019-03-30T11:28:36.294Z,38.33
2019-03-30T11:29:36.294Z,35.35
2019-03-30T11:30:36.286Z,36.03
2019-03-30T11:31:36.257Z,36.23
2019-03-30T11:32:36.248Z,36.93
2019-03-30T11:33:36.244Z,37.03
2019-03-30T11:34:36.249Z,36.93
2019-03-30T11:35:36.219Z,37.51
2019-03-30T11:36:36.218Z,36.71
2019-03-30T11:37:36.193Z,35.61
2019-03-30T11:38:36.190Z,36.10
2019-03-30T11:39:36.191Z,35.01
2019-03-30T11:40:36.188Z,36.19
2019-03-30T11:41:36.150Z,35.69
2019-03-30T11:42:36.146Z,35.30
2019-03-30T11:43:36.133Z,36.68
2019-03-30T11:44:36.124Z,36.08
2019-03-30T11:45:36.135Z,36.28
2019-03-30T11:46:36.111Z,36.98
2019-03-30T11:47:36.087Z,33.56
2019-03-30T11:48:37.687Z,33.86
2019-03-30T11:49:36.064Z,35.66
2019-03-30T11:50:36.067Z,32.56
2019-03-30T11:51:36.065Z,31.58
2019-03-30T11:52:36.045Z,32.40
2019-03-30T11:53:36.026Z,32.50
2019-03-30T11:54:36.023Z,35.11
2019-03-30T11:55:36.031Z,33.01
2019-03-30T11:56:36.049Z,33.89
2019-03-30T11:57:36.057Z,32.91
2019-03-30T11:58:35.963Z,33.70
2019-03-30T11:59:35.972Z,33.91
2019-03-30T12:00:35.959Z,33.91
2019-03-30T12:01:35.938Z,33.80
2019-03-30T12:02:35.926Z,34.50
2019-03-30T12:03:35.910Z,33.38
2019-03-30T12:04:35.902Z,34.18
2019-03-30T12:05:35.939Z,34.88
2019-03-30T12:06:35.893Z,35.68
2019-03-30T12:07:35.870Z,36.36
2019-03-30T12:08:35.872Z,33.56
2019-03-30T12:09:35.873Z,36.86
2019-03-30T12:10:35.837Z,36.94
2019-03-30T12:11:35.864Z,32.95
2019-03-30T12:12:37.544Z,32.05
2019-03-30T12:13:35.810Z,33.23
2019-03-30T12:14:35.814Z,31.05
2019-03-30T12:15:35.787Z,30.75
2019-03-30T12:16:35.825Z,32.95
2019-03-30T12:17:35.761Z,34.84
2019-03-30T12:18:35.762Z,30.95
2019-03-30T12:19:35.747Z,33.06
2019-03-30T12:20:35.729Z,32.17
2019-03-30T12:21:35.739Z,32.06
2019-03-30T12:22:35.707Z,32.26
2019-03-30T12:23:35.763Z,31.87
2019-03-30T12:24:35.700Z,30.66
2019-03-30T12:25:36.308Z,31.85
2019-03-30T12:26:35.666Z,32.26
2019-03-30T12:27:35.670Z,30.66
2019-03-30T12:28:35.641Z,31.26
2019-03-30T12:29:35.632Z,33.96
2019-03-30T12:30:35.630Z,33.15
2019-03-30T12:31:35.636Z,31.95
2019-03-30T12:32:35.621Z,30.95
2019-03-30T12:33:35.584Z,31.46
2019-03-30T12:34:35.586Z,32.56
2019-03-30T12:35:35.573Z,32.36
2019-03-30T12:36:35.586Z,32.08
2019-03-30T12:37:35.596Z,30.78
2019-03-30T12:38:35.538Z,31.79
2019-03-30T12:39:35.526Z,32.09
2019-03-30T12:40:35.510Z,30.69
2019-03-30T12:41:35.516Z,31.59
2019-03-30T12:42:35.519Z,32.20
2019-03-30T12:43:38.788Z,31.59
2019-03-30T12:44:35.482Z,35.78
2019-03-30T12:45:35.455Z,34.98
2019-03-30T12:46:35.461Z,33.08
2019-03-30T12:47:35.437Z,32.26
2019-03-30T12:48:35.548Z,32.17
2019-03-30T12:49:35.477Z,30.85
2019-03-30T12:50:35.401Z,32.55
2019-03-30T12:51:35.398Z,32.45
2019-03-30T12:52:35.415Z,30.35